<?xml version="1.0" encoding="UTF-8" standalone="no" ?>
<gpx xmlns="http://www.topografix.com/GPX/1/1" xmlns:xsi="http://www.w3.org/2001/XMLSchema-instance" xsi:schemaLocation="http://www.topografix.com/GPX/1/1 http://www.topografix.com/GPX/1/1/gpx.xsd" version="1.1" creator="VisuGPX - https://www.visugpx.com">
  <metadata>
    <name>MILLAU J1 et 2</name>
  </metadata>
  <trk>
    <name><![CDATA[MILLAU J2 - Run 4]]></name>
    <trkseg>
      <trkpt lat="44.12596" lon="3.1529">
        <ele>837.20001220703</ele>
        <time>2020-10-03T15:24:35.000Z</time>
      </trkpt>
      <trkpt lat="44.12596" lon="3.1529">
        <ele>836.79998779297</ele>
        <time>2020-10-03T15:24:37.000Z</time>
      </trkpt>
      <trkpt lat="44.12596" lon="3.1529">
        <ele>836.59997558594</ele>
        <time>2020-10-03T15:24:38.000Z</time>
      </trkpt>
      <trkpt lat="44.12596" lon="3.15291">
        <ele>836.40002441406</ele>
        <time>2020-10-03T15:24:39.000Z</time>
      </trkpt>
      <trkpt lat="44.12597" lon="3.15291">
        <ele>836.40002441406</ele>
        <time>2020-10-03T15:24:41.000Z</time>
      </trkpt>
      <trkpt lat="44.12597" lon="3.15291">
        <ele>836.20001220703</ele>
        <time>2020-10-03T15:24:43.000Z</time>
      </trkpt>
      <trkpt lat="44.12597" lon="3.1529">
        <ele>836.20001220703</ele>
        <time>2020-10-03T15:24:45.000Z</time>
      </trkpt>
      <trkpt lat="44.12598" lon="3.15289">
        <ele>836</ele>
        <time>2020-10-03T15:24:47.000Z</time>
      </trkpt>
      <trkpt lat="44.12598" lon="3.15285">
        <ele>835.79998779297</ele>
        <time>2020-10-03T15:24:49.000Z</time>
      </trkpt>
      <trkpt lat="44.12596" lon="3.15283">
        <ele>835.59997558594</ele>
        <time>2020-10-03T15:24:51.000Z</time>
      </trkpt>
      <trkpt lat="44.12596" lon="3.15282">
        <ele>835.40002441406</ele>
        <time>2020-10-03T15:24:52.000Z</time>
      </trkpt>
      <trkpt lat="44.12595" lon="3.15282">
        <ele>835</ele>
        <time>2020-10-03T15:24:53.000Z</time>
      </trkpt>
      <trkpt lat="44.12592" lon="3.15282">
        <ele>834.59997558594</ele>
        <time>2020-10-03T15:24:55.000Z</time>
      </trkpt>
      <trkpt lat="44.12591" lon="3.15283">
        <ele>834.40002441406</ele>
        <time>2020-10-03T15:24:56.000Z</time>
      </trkpt>
      <trkpt lat="44.12589" lon="3.15284">
        <ele>834.20001220703</ele>
        <time>2020-10-03T15:24:57.000Z</time>
      </trkpt>
      <trkpt lat="44.12589" lon="3.15285">
        <ele>833.59997558594</ele>
        <time>2020-10-03T15:24:59.000Z</time>
      </trkpt>
      <trkpt lat="44.12593" lon="3.15283">
        <ele>833.40002441406</ele>
        <time>2020-10-03T15:25:01.000Z</time>
      </trkpt>
      <trkpt lat="44.12597" lon="3.15279">
        <ele>833.20001220703</ele>
        <time>2020-10-03T15:25:03.000Z</time>
      </trkpt>
      <trkpt lat="44.126" lon="3.15278">
        <ele>832.59997558594</ele>
        <time>2020-10-03T15:25:05.000Z</time>
      </trkpt>
      <trkpt lat="44.12605" lon="3.15279">
        <ele>832.20001220703</ele>
        <time>2020-10-03T15:25:07.000Z</time>
      </trkpt>
      <trkpt lat="44.12609" lon="3.1528">
        <ele>832</ele>
        <time>2020-10-03T15:25:09.000Z</time>
      </trkpt>
      <trkpt lat="44.12613" lon="3.15279">
        <ele>831.79998779297</ele>
        <time>2020-10-03T15:25:11.000Z</time>
      </trkpt>
      <trkpt lat="44.12614" lon="3.15282">
        <ele>831.79998779297</ele>
        <time>2020-10-03T15:25:13.000Z</time>
      </trkpt>
      <trkpt lat="44.12612" lon="3.15283">
        <ele>831.79998779297</ele>
        <time>2020-10-03T15:25:15.000Z</time>
      </trkpt>
      <trkpt lat="44.12609" lon="3.15283">
        <ele>831.79998779297</ele>
        <time>2020-10-03T15:25:16.000Z</time>
      </trkpt>
      <trkpt lat="44.12607" lon="3.15283">
        <ele>831.79998779297</ele>
        <time>2020-10-03T15:25:17.000Z</time>
      </trkpt>
      <trkpt lat="44.12601" lon="3.15281">
        <ele>831.79998779297</ele>
        <time>2020-10-03T15:25:19.000Z</time>
      </trkpt>
      <trkpt lat="44.12595" lon="3.15281">
        <ele>831.79998779297</ele>
        <time>2020-10-03T15:25:21.000Z</time>
      </trkpt>
      <trkpt lat="44.12593" lon="3.15282">
        <ele>831.79998779297</ele>
        <time>2020-10-03T15:25:22.000Z</time>
      </trkpt>
      <trkpt lat="44.12591" lon="3.15283">
        <ele>831.79998779297</ele>
        <time>2020-10-03T15:25:23.000Z</time>
      </trkpt>
      <trkpt lat="44.12589" lon="3.15287">
        <ele>831.79998779297</ele>
        <time>2020-10-03T15:25:25.000Z</time>
      </trkpt>
      <trkpt lat="44.1259" lon="3.15288">
        <ele>831.59997558594</ele>
        <time>2020-10-03T15:25:26.000Z</time>
      </trkpt>
      <trkpt lat="44.1259" lon="3.15288">
        <ele>831.79998779297</ele>
        <time>2020-10-03T15:25:27.000Z</time>
      </trkpt>
      <trkpt lat="44.12594" lon="3.15285">
        <ele>831.79998779297</ele>
        <time>2020-10-03T15:25:30.000Z</time>
      </trkpt>
      <trkpt lat="44.12596" lon="3.15283">
        <ele>831.79998779297</ele>
        <time>2020-10-03T15:25:35.000Z</time>
      </trkpt>
      <trkpt lat="44.12601" lon="3.15281">
        <ele>832.20001220703</ele>
        <time>2020-10-03T15:25:48.000Z</time>
      </trkpt>
      <trkpt lat="44.12611" lon="3.15281">
        <ele>832.20001220703</ele>
        <time>2020-10-03T15:25:52.000Z</time>
      </trkpt>
      <trkpt lat="44.12627" lon="3.1528">
        <ele>832.20001220703</ele>
        <time>2020-10-03T15:25:59.000Z</time>
      </trkpt>
      <trkpt lat="44.12635" lon="3.15275">
        <ele>832.20001220703</ele>
        <time>2020-10-03T15:26:04.000Z</time>
      </trkpt>
      <trkpt lat="44.12636" lon="3.15274">
        <ele>832.20001220703</ele>
        <time>2020-10-03T15:26:05.000Z</time>
      </trkpt>
      <trkpt lat="44.12634" lon="3.15274">
        <ele>832.20001220703</ele>
        <time>2020-10-03T15:26:07.000Z</time>
      </trkpt>
      <trkpt lat="44.12629" lon="3.15275">
        <ele>832.20001220703</ele>
        <time>2020-10-03T15:26:09.000Z</time>
      </trkpt>
      <trkpt lat="44.12603" lon="3.15279">
        <ele>831.59997558594</ele>
        <time>2020-10-03T15:26:17.000Z</time>
      </trkpt>
      <trkpt lat="44.12596" lon="3.15279">
        <ele>830.79998779297</ele>
        <time>2020-10-03T15:26:22.000Z</time>
      </trkpt>
      <trkpt lat="44.12595" lon="3.15282">
        <ele>830.79998779297</ele>
        <time>2020-10-03T15:26:33.000Z</time>
      </trkpt>
      <trkpt lat="44.12594" lon="3.15283">
        <ele>831.59997558594</ele>
        <time>2020-10-03T15:26:46.000Z</time>
      </trkpt>
      <trkpt lat="44.12594" lon="3.15282">
        <ele>831.79998779297</ele>
        <time>2020-10-03T15:26:56.000Z</time>
      </trkpt>
      <trkpt lat="44.12593" lon="3.15282">
        <ele>832</ele>
        <time>2020-10-03T15:27:02.000Z</time>
      </trkpt>
      <trkpt lat="44.12593" lon="3.15282">
        <ele>832.20001220703</ele>
        <time>2020-10-03T15:27:19.000Z</time>
      </trkpt>
      <trkpt lat="44.12593" lon="3.15282">
        <ele>831.79998779297</ele>
        <time>2020-10-03T15:27:30.000Z</time>
      </trkpt>
      <trkpt lat="44.12593" lon="3.15282">
        <ele>831.79998779297</ele>
        <time>2020-10-03T15:27:47.000Z</time>
      </trkpt>
      <trkpt lat="44.12593" lon="3.15282">
        <ele>831.79998779297</ele>
        <time>2020-10-03T15:27:49.000Z</time>
      </trkpt>
      <trkpt lat="44.12588" lon="3.15281">
        <ele>831.79998779297</ele>
        <time>2020-10-03T15:27:53.000Z</time>
      </trkpt>
      <trkpt lat="44.12578" lon="3.15278">
        <ele>831.79998779297</ele>
        <time>2020-10-03T15:27:59.000Z</time>
      </trkpt>
      <trkpt lat="44.12566" lon="3.1528">
        <ele>831.79998779297</ele>
        <time>2020-10-03T15:28:06.000Z</time>
      </trkpt>
      <trkpt lat="44.12552" lon="3.15281">
        <ele>832</ele>
        <time>2020-10-03T15:28:12.000Z</time>
      </trkpt>
      <trkpt lat="44.12543" lon="3.15283">
        <ele>831.79998779297</ele>
        <time>2020-10-03T15:28:17.000Z</time>
      </trkpt>
      <trkpt lat="44.12525" lon="3.15284">
        <ele>831.59997558594</ele>
        <time>2020-10-03T15:28:25.000Z</time>
      </trkpt>
      <trkpt lat="44.12511" lon="3.15285">
        <ele>831.59997558594</ele>
        <time>2020-10-03T15:28:32.000Z</time>
      </trkpt>
      <trkpt lat="44.12494" lon="3.15286">
        <ele>831.79998779297</ele>
        <time>2020-10-03T15:28:39.000Z</time>
      </trkpt>
      <trkpt lat="44.12482" lon="3.15289">
        <ele>831.79998779297</ele>
        <time>2020-10-03T15:28:45.000Z</time>
      </trkpt>
      <trkpt lat="44.1247" lon="3.15292">
        <ele>831.79998779297</ele>
        <time>2020-10-03T15:28:50.000Z</time>
      </trkpt>
      <trkpt lat="44.12455" lon="3.15292">
        <ele>831.59997558594</ele>
        <time>2020-10-03T15:28:56.000Z</time>
      </trkpt>
      <trkpt lat="44.12438" lon="3.15295">
        <ele>831.59997558594</ele>
        <time>2020-10-03T15:29:02.000Z</time>
      </trkpt>
      <trkpt lat="44.12426" lon="3.15296">
        <ele>831.59997558594</ele>
        <time>2020-10-03T15:29:07.000Z</time>
      </trkpt>
      <trkpt lat="44.12397" lon="3.153">
        <ele>831.79998779297</ele>
        <time>2020-10-03T15:29:18.000Z</time>
      </trkpt>
      <trkpt lat="44.12376" lon="3.15303">
        <ele>831.79998779297</ele>
        <time>2020-10-03T15:29:25.000Z</time>
      </trkpt>
      <trkpt lat="44.12352" lon="3.15305">
        <ele>832</ele>
        <time>2020-10-03T15:29:32.000Z</time>
      </trkpt>
      <trkpt lat="44.12324" lon="3.15309">
        <ele>832.20001220703</ele>
        <time>2020-10-03T15:29:40.000Z</time>
      </trkpt>
      <trkpt lat="44.12321" lon="3.15309">
        <ele>832.20001220703</ele>
        <time>2020-10-03T15:29:41.000Z</time>
      </trkpt>
      <trkpt lat="44.12315" lon="3.15309">
        <ele>832.40002441406</ele>
        <time>2020-10-03T15:29:44.000Z</time>
      </trkpt>
      <trkpt lat="44.12313" lon="3.15309">
        <ele>832.40002441406</ele>
        <time>2020-10-03T15:29:50.000Z</time>
      </trkpt>
      <trkpt lat="44.12313" lon="3.15309">
        <ele>833</ele>
        <time>2020-10-03T15:30:03.000Z</time>
      </trkpt>
      <trkpt lat="44.12314" lon="3.1531">
        <ele>833.20001220703</ele>
        <time>2020-10-03T15:30:04.000Z</time>
      </trkpt>
      <trkpt lat="44.12314" lon="3.15309">
        <ele>833.40002441406</ele>
        <time>2020-10-03T15:30:18.000Z</time>
      </trkpt>
      <trkpt lat="44.12314" lon="3.15309">
        <ele>833.20001220703</ele>
        <time>2020-10-03T15:30:33.000Z</time>
      </trkpt>
      <trkpt lat="44.12315" lon="3.15309">
        <ele>833.20001220703</ele>
        <time>2020-10-03T15:30:51.000Z</time>
      </trkpt>
      <trkpt lat="44.12314" lon="3.15309">
        <ele>833.20001220703</ele>
        <time>2020-10-03T15:31:05.000Z</time>
      </trkpt>
      <trkpt lat="44.12315" lon="3.15307">
        <ele>833</ele>
        <time>2020-10-03T15:31:19.000Z</time>
      </trkpt>
      <trkpt lat="44.12317" lon="3.15304">
        <ele>833</ele>
        <time>2020-10-03T15:31:29.000Z</time>
      </trkpt>
      <trkpt lat="44.12319" lon="3.15304">
        <ele>833</ele>
        <time>2020-10-03T15:31:30.000Z</time>
      </trkpt>
      <trkpt lat="44.12327" lon="3.15305">
        <ele>833</ele>
        <time>2020-10-03T15:31:34.000Z</time>
      </trkpt>
      <trkpt lat="44.12343" lon="3.15303">
        <ele>833</ele>
        <time>2020-10-03T15:31:39.000Z</time>
      </trkpt>
      <trkpt lat="44.12365" lon="3.15299">
        <ele>832.40002441406</ele>
        <time>2020-10-03T15:31:46.000Z</time>
      </trkpt>
      <trkpt lat="44.12391" lon="3.15296">
        <ele>832.20001220703</ele>
        <time>2020-10-03T15:31:54.000Z</time>
      </trkpt>
      <trkpt lat="44.12412" lon="3.15293">
        <ele>832.40002441406</ele>
        <time>2020-10-03T15:32:01.000Z</time>
      </trkpt>
      <trkpt lat="44.12422" lon="3.15294">
        <ele>832.59997558594</ele>
        <time>2020-10-03T15:32:06.000Z</time>
      </trkpt>
      <trkpt lat="44.1244" lon="3.15293">
        <ele>832.59997558594</ele>
        <time>2020-10-03T15:32:13.000Z</time>
      </trkpt>
      <trkpt lat="44.12459" lon="3.15291">
        <ele>832.79998779297</ele>
        <time>2020-10-03T15:32:20.000Z</time>
      </trkpt>
      <trkpt lat="44.12482" lon="3.15291">
        <ele>832.59997558594</ele>
        <time>2020-10-03T15:32:27.000Z</time>
      </trkpt>
      <trkpt lat="44.12514" lon="3.15291">
        <ele>832.79998779297</ele>
        <time>2020-10-03T15:32:34.000Z</time>
      </trkpt>
      <trkpt lat="44.1254" lon="3.15285">
        <ele>832.79998779297</ele>
        <time>2020-10-03T15:32:39.000Z</time>
      </trkpt>
      <trkpt lat="44.12558" lon="3.15277">
        <ele>832.79998779297</ele>
        <time>2020-10-03T15:32:43.000Z</time>
      </trkpt>
      <trkpt lat="44.12561" lon="3.15274">
        <ele>832.79998779297</ele>
        <time>2020-10-03T15:32:44.000Z</time>
      </trkpt>
      <trkpt lat="44.12562" lon="3.15268">
        <ele>832.79998779297</ele>
        <time>2020-10-03T15:32:46.000Z</time>
      </trkpt>
      <trkpt lat="44.12552" lon="3.15266">
        <ele>833</ele>
        <time>2020-10-03T15:32:50.000Z</time>
      </trkpt>
      <trkpt lat="44.12548" lon="3.15266">
        <ele>833</ele>
        <time>2020-10-03T15:32:51.000Z</time>
      </trkpt>
      <trkpt lat="44.12532" lon="3.15264">
        <ele>833</ele>
        <time>2020-10-03T15:32:56.000Z</time>
      </trkpt>
      <trkpt lat="44.12512" lon="3.15259">
        <ele>833.20001220703</ele>
        <time>2020-10-03T15:33:03.000Z</time>
      </trkpt>
      <trkpt lat="44.12493" lon="3.15254">
        <ele>833.59997558594</ele>
        <time>2020-10-03T15:33:09.000Z</time>
      </trkpt>
      <trkpt lat="44.12473" lon="3.15247">
        <ele>833.79998779297</ele>
        <time>2020-10-03T15:33:15.000Z</time>
      </trkpt>
      <trkpt lat="44.12449" lon="3.15234">
        <ele>834</ele>
        <time>2020-10-03T15:33:23.000Z</time>
      </trkpt>
      <trkpt lat="44.12431" lon="3.15225">
        <ele>834</ele>
        <time>2020-10-03T15:33:29.000Z</time>
      </trkpt>
      <trkpt lat="44.12416" lon="3.15216">
        <ele>834.20001220703</ele>
        <time>2020-10-03T15:33:35.000Z</time>
      </trkpt>
      <trkpt lat="44.12399" lon="3.15207">
        <ele>834.20001220703</ele>
        <time>2020-10-03T15:33:41.000Z</time>
      </trkpt>
      <trkpt lat="44.12384" lon="3.15199">
        <ele>834.20001220703</ele>
        <time>2020-10-03T15:33:46.000Z</time>
      </trkpt>
      <trkpt lat="44.12366" lon="3.15189">
        <ele>834.40002441406</ele>
        <time>2020-10-03T15:33:51.000Z</time>
      </trkpt>
      <trkpt lat="44.12343" lon="3.1518">
        <ele>834.59997558594</ele>
        <time>2020-10-03T15:33:57.000Z</time>
      </trkpt>
      <trkpt lat="44.12336" lon="3.15178">
        <ele>834.59997558594</ele>
        <time>2020-10-03T15:34:00.000Z</time>
      </trkpt>
      <trkpt lat="44.12331" lon="3.15177">
        <ele>834.59997558594</ele>
        <time>2020-10-03T15:34:02.000Z</time>
      </trkpt>
      <trkpt lat="44.12319" lon="3.1517">
        <ele>834.79998779297</ele>
        <time>2020-10-03T15:34:09.000Z</time>
      </trkpt>
      <trkpt lat="44.12311" lon="3.15167">
        <ele>834.79998779297</ele>
        <time>2020-10-03T15:34:14.000Z</time>
      </trkpt>
      <trkpt lat="44.1231" lon="3.15166">
        <ele>834.79998779297</ele>
        <time>2020-10-03T15:34:15.000Z</time>
      </trkpt>
      <trkpt lat="44.12304" lon="3.15164">
        <ele>835</ele>
        <time>2020-10-03T15:34:22.000Z</time>
      </trkpt>
      <trkpt lat="44.12302" lon="3.15164">
        <ele>835.40002441406</ele>
        <time>2020-10-03T15:34:34.000Z</time>
      </trkpt>
      <trkpt lat="44.12302" lon="3.15164">
        <ele>835.40002441406</ele>
        <time>2020-10-03T15:34:45.000Z</time>
      </trkpt>
      <trkpt lat="44.12301" lon="3.15164">
        <ele>835.20001220703</ele>
        <time>2020-10-03T15:34:57.000Z</time>
      </trkpt>
      <trkpt lat="44.12302" lon="3.15157">
        <ele>834.79998779297</ele>
        <time>2020-10-03T15:35:08.000Z</time>
      </trkpt>
      <trkpt lat="44.12304" lon="3.15141">
        <ele>835</ele>
        <time>2020-10-03T15:35:13.000Z</time>
      </trkpt>
      <trkpt lat="44.12305" lon="3.15133">
        <ele>835.59997558594</ele>
        <time>2020-10-03T15:35:15.000Z</time>
      </trkpt>
      <trkpt lat="44.12307" lon="3.15118">
        <ele>836.20001220703</ele>
        <time>2020-10-03T15:35:19.000Z</time>
      </trkpt>
      <trkpt lat="44.12307" lon="3.151">
        <ele>836.20001220703</ele>
        <time>2020-10-03T15:35:24.000Z</time>
      </trkpt>
      <trkpt lat="44.12307" lon="3.15076">
        <ele>836.20001220703</ele>
        <time>2020-10-03T15:35:30.000Z</time>
      </trkpt>
      <trkpt lat="44.12305" lon="3.15056">
        <ele>836.20001220703</ele>
        <time>2020-10-03T15:35:35.000Z</time>
      </trkpt>
      <trkpt lat="44.12302" lon="3.15039">
        <ele>836.20001220703</ele>
        <time>2020-10-03T15:35:41.000Z</time>
      </trkpt>
      <trkpt lat="44.123" lon="3.15015">
        <ele>836</ele>
        <time>2020-10-03T15:35:50.000Z</time>
      </trkpt>
      <trkpt lat="44.123" lon="3.15002">
        <ele>836</ele>
        <time>2020-10-03T15:35:56.000Z</time>
      </trkpt>
      <trkpt lat="44.12299" lon="3.14996">
        <ele>836</ele>
        <time>2020-10-03T15:35:58.000Z</time>
      </trkpt>
      <trkpt lat="44.12299" lon="3.14989">
        <ele>836</ele>
        <time>2020-10-03T15:36:01.000Z</time>
      </trkpt>
      <trkpt lat="44.123" lon="3.14977">
        <ele>836</ele>
        <time>2020-10-03T15:36:05.000Z</time>
      </trkpt>
      <trkpt lat="44.123" lon="3.14971">
        <ele>836</ele>
        <time>2020-10-03T15:36:07.000Z</time>
      </trkpt>
      <trkpt lat="44.12299" lon="3.14948">
        <ele>835.79998779297</ele>
        <time>2020-10-03T15:36:13.000Z</time>
      </trkpt>
      <trkpt lat="44.12296" lon="3.14927">
        <ele>835.40002441406</ele>
        <time>2020-10-03T15:36:18.000Z</time>
      </trkpt>
      <trkpt lat="44.12294" lon="3.14903">
        <ele>835.40002441406</ele>
        <time>2020-10-03T15:36:25.000Z</time>
      </trkpt>
      <trkpt lat="44.12293" lon="3.14886">
        <ele>835.40002441406</ele>
        <time>2020-10-03T15:36:30.000Z</time>
      </trkpt>
      <trkpt lat="44.12292" lon="3.14863">
        <ele>835.40002441406</ele>
        <time>2020-10-03T15:36:36.000Z</time>
      </trkpt>
      <trkpt lat="44.12289" lon="3.14836">
        <ele>835.40002441406</ele>
        <time>2020-10-03T15:36:43.000Z</time>
      </trkpt>
      <trkpt lat="44.12289" lon="3.14815">
        <ele>835.40002441406</ele>
        <time>2020-10-03T15:36:49.000Z</time>
      </trkpt>
      <trkpt lat="44.12288" lon="3.14792">
        <ele>835.40002441406</ele>
        <time>2020-10-03T15:36:54.000Z</time>
      </trkpt>
      <trkpt lat="44.12281" lon="3.14776">
        <ele>835.40002441406</ele>
        <time>2020-10-03T15:36:59.000Z</time>
      </trkpt>
      <trkpt lat="44.12265" lon="3.14759">
        <ele>835.59997558594</ele>
        <time>2020-10-03T15:37:05.000Z</time>
      </trkpt>
      <trkpt lat="44.12251" lon="3.14747">
        <ele>835.59997558594</ele>
        <time>2020-10-03T15:37:11.000Z</time>
      </trkpt>
      <trkpt lat="44.12244" lon="3.14742">
        <ele>835.59997558594</ele>
        <time>2020-10-03T15:37:16.000Z</time>
      </trkpt>
      <trkpt lat="44.12243" lon="3.1474">
        <ele>835.59997558594</ele>
        <time>2020-10-03T15:37:26.000Z</time>
      </trkpt>
      <trkpt lat="44.12242" lon="3.14739">
        <ele>835.59997558594</ele>
        <time>2020-10-03T15:37:39.000Z</time>
      </trkpt>
      <trkpt lat="44.12242" lon="3.14738">
        <ele>835.20001220703</ele>
        <time>2020-10-03T15:38:01.000Z</time>
      </trkpt>
      <trkpt lat="44.12241" lon="3.14735">
        <ele>834.20001220703</ele>
        <time>2020-10-03T15:38:17.000Z</time>
      </trkpt>
      <trkpt lat="44.12241" lon="3.14732">
        <ele>834.20001220703</ele>
        <time>2020-10-03T15:38:19.000Z</time>
      </trkpt>
      <trkpt lat="44.12242" lon="3.14723">
        <ele>834</ele>
        <time>2020-10-03T15:38:23.000Z</time>
      </trkpt>
      <trkpt lat="44.12246" lon="3.14708">
        <ele>834</ele>
        <time>2020-10-03T15:38:27.000Z</time>
      </trkpt>
      <trkpt lat="44.12244" lon="3.14703">
        <ele>834</ele>
        <time>2020-10-03T15:38:28.000Z</time>
      </trkpt>
      <trkpt lat="44.12245" lon="3.14694">
        <ele>833.79998779297</ele>
        <time>2020-10-03T15:38:30.000Z</time>
      </trkpt>
      <trkpt lat="44.12248" lon="3.14692">
        <ele>833.59997558594</ele>
        <time>2020-10-03T15:38:31.000Z</time>
      </trkpt>
      <trkpt lat="44.12252" lon="3.14691">
        <ele>833.20001220703</ele>
        <time>2020-10-03T15:38:33.000Z</time>
      </trkpt>
      <trkpt lat="44.12261" lon="3.14698">
        <ele>833.20001220703</ele>
        <time>2020-10-03T15:38:36.000Z</time>
      </trkpt>
      <trkpt lat="44.1227" lon="3.147">
        <ele>833</ele>
        <time>2020-10-03T15:38:39.000Z</time>
      </trkpt>
      <trkpt lat="44.12276" lon="3.14693">
        <ele>832.79998779297</ele>
        <time>2020-10-03T15:38:42.000Z</time>
      </trkpt>
      <trkpt lat="44.12278" lon="3.14694">
        <ele>832.79998779297</ele>
        <time>2020-10-03T15:38:43.000Z</time>
      </trkpt>
      <trkpt lat="44.12281" lon="3.14693">
        <ele>832.79998779297</ele>
        <time>2020-10-03T15:38:44.000Z</time>
      </trkpt>
      <trkpt lat="44.12287" lon="3.1469">
        <ele>832.59997558594</ele>
        <time>2020-10-03T15:38:46.000Z</time>
      </trkpt>
      <trkpt lat="44.12295" lon="3.14692">
        <ele>832.40002441406</ele>
        <time>2020-10-03T15:38:49.000Z</time>
      </trkpt>
      <trkpt lat="44.12296" lon="3.14694">
        <ele>832.40002441406</ele>
        <time>2020-10-03T15:38:50.000Z</time>
      </trkpt>
      <trkpt lat="44.123" lon="3.14697">
        <ele>832.20001220703</ele>
        <time>2020-10-03T15:38:52.000Z</time>
      </trkpt>
      <trkpt lat="44.12305" lon="3.14696">
        <ele>832</ele>
        <time>2020-10-03T15:38:54.000Z</time>
      </trkpt>
      <trkpt lat="44.12318" lon="3.14686">
        <ele>831.59997558594</ele>
        <time>2020-10-03T15:38:58.000Z</time>
      </trkpt>
      <trkpt lat="44.12327" lon="3.14672">
        <ele>831.40002441406</ele>
        <time>2020-10-03T15:39:02.000Z</time>
      </trkpt>
      <trkpt lat="44.12329" lon="3.14669">
        <ele>831.40002441406</ele>
        <time>2020-10-03T15:39:03.000Z</time>
      </trkpt>
      <trkpt lat="44.12343" lon="3.14658">
        <ele>831</ele>
        <time>2020-10-03T15:39:07.000Z</time>
      </trkpt>
      <trkpt lat="44.1236" lon="3.14644">
        <ele>830.40002441406</ele>
        <time>2020-10-03T15:39:12.000Z</time>
      </trkpt>
      <trkpt lat="44.12361" lon="3.14637">
        <ele>830.59997558594</ele>
        <time>2020-10-03T15:39:15.000Z</time>
      </trkpt>
      <trkpt lat="44.12361" lon="3.14635">
        <ele>830.59997558594</ele>
        <time>2020-10-03T15:39:16.000Z</time>
      </trkpt>
      <trkpt lat="44.12361" lon="3.14631">
        <ele>830.59997558594</ele>
        <time>2020-10-03T15:39:27.000Z</time>
      </trkpt>
      <trkpt lat="44.12359" lon="3.14633">
        <ele>831</ele>
        <time>2020-10-03T15:39:46.000Z</time>
      </trkpt>
      <trkpt lat="44.12359" lon="3.14632">
        <ele>831</ele>
        <time>2020-10-03T15:39:56.000Z</time>
      </trkpt>
      <trkpt lat="44.12354" lon="3.14617">
        <ele>830.79998779297</ele>
        <time>2020-10-03T15:40:05.000Z</time>
      </trkpt>
      <trkpt lat="44.12344" lon="3.14601">
        <ele>830.59997558594</ele>
        <time>2020-10-03T15:40:10.000Z</time>
      </trkpt>
      <trkpt lat="44.12341" lon="3.14596">
        <ele>830.79998779297</ele>
        <time>2020-10-03T15:40:11.000Z</time>
      </trkpt>
      <trkpt lat="44.12336" lon="3.14585">
        <ele>830.59997558594</ele>
        <time>2020-10-03T15:40:13.000Z</time>
      </trkpt>
      <trkpt lat="44.12333" lon="3.14578">
        <ele>830.20001220703</ele>
        <time>2020-10-03T15:40:15.000Z</time>
      </trkpt>
      <trkpt lat="44.12333" lon="3.14575">
        <ele>830</ele>
        <time>2020-10-03T15:40:16.000Z</time>
      </trkpt>
      <trkpt lat="44.12333" lon="3.14573">
        <ele>829.79998779297</ele>
        <time>2020-10-03T15:40:17.000Z</time>
      </trkpt>
      <trkpt lat="44.12331" lon="3.14569">
        <ele>829.59997558594</ele>
        <time>2020-10-03T15:40:21.000Z</time>
      </trkpt>
      <trkpt lat="44.12327" lon="3.1456">
        <ele>829.59997558594</ele>
        <time>2020-10-03T15:40:29.000Z</time>
      </trkpt>
      <trkpt lat="44.12325" lon="3.14559">
        <ele>829.40002441406</ele>
        <time>2020-10-03T15:40:43.000Z</time>
      </trkpt>
      <trkpt lat="44.12328" lon="3.14555">
        <ele>829.40002441406</ele>
        <time>2020-10-03T15:40:56.000Z</time>
      </trkpt>
      <trkpt lat="44.12327" lon="3.14557">
        <ele>829.40002441406</ele>
        <time>2020-10-03T15:41:08.000Z</time>
      </trkpt>
      <trkpt lat="44.12326" lon="3.1456">
        <ele>829.40002441406</ele>
        <time>2020-10-03T15:41:12.000Z</time>
      </trkpt>
      <trkpt lat="44.12326" lon="3.14561">
        <ele>829.20001220703</ele>
        <time>2020-10-03T15:41:24.000Z</time>
      </trkpt>
      <trkpt lat="44.1233" lon="3.14553">
        <ele>829</ele>
        <time>2020-10-03T15:41:30.000Z</time>
      </trkpt>
      <trkpt lat="44.12331" lon="3.14551">
        <ele>829</ele>
        <time>2020-10-03T15:41:31.000Z</time>
      </trkpt>
      <trkpt lat="44.12341" lon="3.14537">
        <ele>828.59997558594</ele>
        <time>2020-10-03T15:41:36.000Z</time>
      </trkpt>
      <trkpt lat="44.12343" lon="3.14534">
        <ele>828.59997558594</ele>
        <time>2020-10-03T15:41:37.000Z</time>
      </trkpt>
      <trkpt lat="44.1235" lon="3.14516">
        <ele>828.79998779297</ele>
        <time>2020-10-03T15:41:41.000Z</time>
      </trkpt>
      <trkpt lat="44.1236" lon="3.14502">
        <ele>828.59997558594</ele>
        <time>2020-10-03T15:41:45.000Z</time>
      </trkpt>
      <trkpt lat="44.12372" lon="3.14489">
        <ele>828.40002441406</ele>
        <time>2020-10-03T15:41:50.000Z</time>
      </trkpt>
      <trkpt lat="44.12381" lon="3.14466">
        <ele>828.40002441406</ele>
        <time>2020-10-03T15:41:54.000Z</time>
      </trkpt>
      <trkpt lat="44.12382" lon="3.14458">
        <ele>828.40002441406</ele>
        <time>2020-10-03T15:41:55.000Z</time>
      </trkpt>
      <trkpt lat="44.12382" lon="3.14441">
        <ele>828.20001220703</ele>
        <time>2020-10-03T15:41:57.000Z</time>
      </trkpt>
      <trkpt lat="44.12382" lon="3.14433">
        <ele>828.20001220703</ele>
        <time>2020-10-03T15:41:58.000Z</time>
      </trkpt>
      <trkpt lat="44.12388" lon="3.14423">
        <ele>828.20001220703</ele>
        <time>2020-10-03T15:42:00.000Z</time>
      </trkpt>
      <trkpt lat="44.12395" lon="3.14417">
        <ele>828.20001220703</ele>
        <time>2020-10-03T15:42:02.000Z</time>
      </trkpt>
      <trkpt lat="44.12399" lon="3.14414">
        <ele>828.20001220703</ele>
        <time>2020-10-03T15:42:03.000Z</time>
      </trkpt>
      <trkpt lat="44.12402" lon="3.14409">
        <ele>828</ele>
        <time>2020-10-03T15:42:04.000Z</time>
      </trkpt>
      <trkpt lat="44.12412" lon="3.14388">
        <ele>827.59997558594</ele>
        <time>2020-10-03T15:42:07.000Z</time>
      </trkpt>
      <trkpt lat="44.12418" lon="3.14381">
        <ele>827.59997558594</ele>
        <time>2020-10-03T15:42:08.000Z</time>
      </trkpt>
      <trkpt lat="44.12429" lon="3.1437">
        <ele>827.40002441406</ele>
        <time>2020-10-03T15:42:10.000Z</time>
      </trkpt>
      <trkpt lat="44.12436" lon="3.14362">
        <ele>827.20001220703</ele>
        <time>2020-10-03T15:42:12.000Z</time>
      </trkpt>
      <trkpt lat="44.12437" lon="3.14357">
        <ele>827.20001220703</ele>
        <time>2020-10-03T15:42:13.000Z</time>
      </trkpt>
      <trkpt lat="44.12434" lon="3.14341">
        <ele>826.79998779297</ele>
        <time>2020-10-03T15:42:17.000Z</time>
      </trkpt>
      <trkpt lat="44.12435" lon="3.1433">
        <ele>826.79998779297</ele>
        <time>2020-10-03T15:42:20.000Z</time>
      </trkpt>
      <trkpt lat="44.1244" lon="3.14315">
        <ele>826.59997558594</ele>
        <time>2020-10-03T15:42:25.000Z</time>
      </trkpt>
      <trkpt lat="44.12438" lon="3.14315">
        <ele>826.59997558594</ele>
        <time>2020-10-03T15:42:26.000Z</time>
      </trkpt>
      <trkpt lat="44.12433" lon="3.14311">
        <ele>826.59997558594</ele>
        <time>2020-10-03T15:42:28.000Z</time>
      </trkpt>
      <trkpt lat="44.12428" lon="3.14308">
        <ele>826</ele>
        <time>2020-10-03T15:42:30.000Z</time>
      </trkpt>
      <trkpt lat="44.12424" lon="3.14306">
        <ele>825.79998779297</ele>
        <time>2020-10-03T15:42:32.000Z</time>
      </trkpt>
      <trkpt lat="44.12413" lon="3.14303">
        <ele>825.20001220703</ele>
        <time>2020-10-03T15:42:36.000Z</time>
      </trkpt>
      <trkpt lat="44.12411" lon="3.14302">
        <ele>825</ele>
        <time>2020-10-03T15:42:37.000Z</time>
      </trkpt>
      <trkpt lat="44.12408" lon="3.14301">
        <ele>824.79998779297</ele>
        <time>2020-10-03T15:42:39.000Z</time>
      </trkpt>
      <trkpt lat="44.1241" lon="3.14298">
        <ele>824.59997558594</ele>
        <time>2020-10-03T15:42:41.000Z</time>
      </trkpt>
      <trkpt lat="44.12412" lon="3.14294">
        <ele>824.20001220703</ele>
        <time>2020-10-03T15:42:44.000Z</time>
      </trkpt>
      <trkpt lat="44.12409" lon="3.14292">
        <ele>824</ele>
        <time>2020-10-03T15:42:46.000Z</time>
      </trkpt>
      <trkpt lat="44.12408" lon="3.1429">
        <ele>824</ele>
        <time>2020-10-03T15:42:47.000Z</time>
      </trkpt>
      <trkpt lat="44.12404" lon="3.14287">
        <ele>823.79998779297</ele>
        <time>2020-10-03T15:42:49.000Z</time>
      </trkpt>
      <trkpt lat="44.12401" lon="3.14285">
        <ele>824</ele>
        <time>2020-10-03T15:42:50.000Z</time>
      </trkpt>
      <trkpt lat="44.12393" lon="3.14275">
        <ele>823.59997558594</ele>
        <time>2020-10-03T15:42:54.000Z</time>
      </trkpt>
      <trkpt lat="44.12385" lon="3.14269">
        <ele>823.40002441406</ele>
        <time>2020-10-03T15:42:58.000Z</time>
      </trkpt>
      <trkpt lat="44.12383" lon="3.14267">
        <ele>823.20001220703</ele>
        <time>2020-10-03T15:42:59.000Z</time>
      </trkpt>
      <trkpt lat="44.1238" lon="3.14261">
        <ele>822.20001220703</ele>
        <time>2020-10-03T15:43:01.000Z</time>
      </trkpt>
      <trkpt lat="44.12378" lon="3.14258">
        <ele>814.79998779297</ele>
        <time>2020-10-03T15:43:02.000Z</time>
      </trkpt>
      <trkpt lat="44.12376" lon="3.14255">
        <ele>787</ele>
        <time>2020-10-03T15:43:03.000Z</time>
      </trkpt>
      <trkpt lat="44.12372" lon="3.14251">
        <ele>775.79998779297</ele>
        <time>2020-10-03T15:43:04.000Z</time>
      </trkpt>
      <trkpt lat="44.12368" lon="3.14247">
        <ele>767.20001220703</ele>
        <time>2020-10-03T15:43:05.000Z</time>
      </trkpt>
      <trkpt lat="44.12365" lon="3.14242">
        <ele>761</ele>
        <time>2020-10-03T15:43:06.000Z</time>
      </trkpt>
      <trkpt lat="44.12362" lon="3.14237">
        <ele>756.59997558594</ele>
        <time>2020-10-03T15:43:07.000Z</time>
      </trkpt>
      <trkpt lat="44.1236" lon="3.14233">
        <ele>753.40002441406</ele>
        <time>2020-10-03T15:43:08.000Z</time>
      </trkpt>
      <trkpt lat="44.12359" lon="3.1423">
        <ele>751</ele>
        <time>2020-10-03T15:43:09.000Z</time>
      </trkpt>
      <trkpt lat="44.12357" lon="3.14228">
        <ele>749.20001220703</ele>
        <time>2020-10-03T15:43:10.000Z</time>
      </trkpt>
      <trkpt lat="44.12355" lon="3.14226">
        <ele>747.59997558594</ele>
        <time>2020-10-03T15:43:11.000Z</time>
      </trkpt>
      <trkpt lat="44.12354" lon="3.14224">
        <ele>746.59997558594</ele>
        <time>2020-10-03T15:43:12.000Z</time>
      </trkpt>
      <trkpt lat="44.12354" lon="3.14223">
        <ele>745.20001220703</ele>
        <time>2020-10-03T15:43:13.000Z</time>
      </trkpt>
      <trkpt lat="44.12354" lon="3.14221">
        <ele>744</ele>
        <time>2020-10-03T15:43:14.000Z</time>
      </trkpt>
      <trkpt lat="44.12354" lon="3.14219">
        <ele>742.40002441406</ele>
        <time>2020-10-03T15:43:15.000Z</time>
      </trkpt>
      <trkpt lat="44.12352" lon="3.14217">
        <ele>741</ele>
        <time>2020-10-03T15:43:16.000Z</time>
      </trkpt>
      <trkpt lat="44.12351" lon="3.14216">
        <ele>739.79998779297</ele>
        <time>2020-10-03T15:43:17.000Z</time>
      </trkpt>
      <trkpt lat="44.12351" lon="3.14215">
        <ele>738.79998779297</ele>
        <time>2020-10-03T15:43:18.000Z</time>
      </trkpt>
      <trkpt lat="44.1235" lon="3.14214">
        <ele>737.79998779297</ele>
        <time>2020-10-03T15:43:19.000Z</time>
      </trkpt>
      <trkpt lat="44.12345" lon="3.14208">
        <ele>736</ele>
        <time>2020-10-03T15:43:21.000Z</time>
      </trkpt>
      <trkpt lat="44.12343" lon="3.14204">
        <ele>735</ele>
        <time>2020-10-03T15:43:23.000Z</time>
      </trkpt>
      <trkpt lat="44.12342" lon="3.14202">
        <ele>734.40002441406</ele>
        <time>2020-10-03T15:43:24.000Z</time>
      </trkpt>
      <trkpt lat="44.12341" lon="3.14196">
        <ele>733.40002441406</ele>
        <time>2020-10-03T15:43:26.000Z</time>
      </trkpt>
      <trkpt lat="44.12339" lon="3.14189">
        <ele>732.20001220703</ele>
        <time>2020-10-03T15:43:28.000Z</time>
      </trkpt>
      <trkpt lat="44.12335" lon="3.14179">
        <ele>730.59997558594</ele>
        <time>2020-10-03T15:43:31.000Z</time>
      </trkpt>
      <trkpt lat="44.12332" lon="3.14176">
        <ele>729.20001220703</ele>
        <time>2020-10-03T15:43:33.000Z</time>
      </trkpt>
      <trkpt lat="44.12328" lon="3.14171">
        <ele>727.79998779297</ele>
        <time>2020-10-03T15:43:35.000Z</time>
      </trkpt>
      <trkpt lat="44.12323" lon="3.14164">
        <ele>726.20001220703</ele>
        <time>2020-10-03T15:43:37.000Z</time>
      </trkpt>
      <trkpt lat="44.1232" lon="3.14157">
        <ele>724.79998779297</ele>
        <time>2020-10-03T15:43:39.000Z</time>
      </trkpt>
      <trkpt lat="44.12316" lon="3.14151">
        <ele>723.20001220703</ele>
        <time>2020-10-03T15:43:41.000Z</time>
      </trkpt>
      <trkpt lat="44.12312" lon="3.14145">
        <ele>721.59997558594</ele>
        <time>2020-10-03T15:43:43.000Z</time>
      </trkpt>
      <trkpt lat="44.12308" lon="3.14137">
        <ele>719.59997558594</ele>
        <time>2020-10-03T15:43:45.000Z</time>
      </trkpt>
      <trkpt lat="44.12306" lon="3.14135">
        <ele>718.40002441406</ele>
        <time>2020-10-03T15:43:46.000Z</time>
      </trkpt>
      <trkpt lat="44.12303" lon="3.14132">
        <ele>717.40002441406</ele>
        <time>2020-10-03T15:43:47.000Z</time>
      </trkpt>
      <trkpt lat="44.12301" lon="3.1413">
        <ele>716.40002441406</ele>
        <time>2020-10-03T15:43:48.000Z</time>
      </trkpt>
      <trkpt lat="44.12299" lon="3.14127">
        <ele>715.40002441406</ele>
        <time>2020-10-03T15:43:49.000Z</time>
      </trkpt>
      <trkpt lat="44.12296" lon="3.14124">
        <ele>714.20001220703</ele>
        <time>2020-10-03T15:43:50.000Z</time>
      </trkpt>
      <trkpt lat="44.12292" lon="3.14119">
        <ele>712.40002441406</ele>
        <time>2020-10-03T15:43:52.000Z</time>
      </trkpt>
      <trkpt lat="44.12293" lon="3.14112">
        <ele>710.79998779297</ele>
        <time>2020-10-03T15:43:54.000Z</time>
      </trkpt>
      <trkpt lat="44.12294" lon="3.14108">
        <ele>709.79998779297</ele>
        <time>2020-10-03T15:43:55.000Z</time>
      </trkpt>
      <trkpt lat="44.12294" lon="3.14105">
        <ele>708.59997558594</ele>
        <time>2020-10-03T15:43:56.000Z</time>
      </trkpt>
      <trkpt lat="44.12294" lon="3.14103">
        <ele>707.40002441406</ele>
        <time>2020-10-03T15:43:57.000Z</time>
      </trkpt>
      <trkpt lat="44.12293" lon="3.14102">
        <ele>706</ele>
        <time>2020-10-03T15:43:58.000Z</time>
      </trkpt>
      <trkpt lat="44.12292" lon="3.14101">
        <ele>705</ele>
        <time>2020-10-03T15:43:59.000Z</time>
      </trkpt>
      <trkpt lat="44.1229" lon="3.14102">
        <ele>704</ele>
        <time>2020-10-03T15:44:00.000Z</time>
      </trkpt>
      <trkpt lat="44.12288" lon="3.14101">
        <ele>702.20001220703</ele>
        <time>2020-10-03T15:44:01.000Z</time>
      </trkpt>
      <trkpt lat="44.12283" lon="3.141">
        <ele>700.59997558594</ele>
        <time>2020-10-03T15:44:03.000Z</time>
      </trkpt>
      <trkpt lat="44.12281" lon="3.14101">
        <ele>699.59997558594</ele>
        <time>2020-10-03T15:44:04.000Z</time>
      </trkpt>
      <trkpt lat="44.12279" lon="3.14102">
        <ele>698.59997558594</ele>
        <time>2020-10-03T15:44:05.000Z</time>
      </trkpt>
      <trkpt lat="44.12279" lon="3.14102">
        <ele>697.79998779297</ele>
        <time>2020-10-03T15:44:06.000Z</time>
      </trkpt>
      <trkpt lat="44.12277" lon="3.14102">
        <ele>696.20001220703</ele>
        <time>2020-10-03T15:44:08.000Z</time>
      </trkpt>
      <trkpt lat="44.12274" lon="3.14104">
        <ele>695</ele>
        <time>2020-10-03T15:44:10.000Z</time>
      </trkpt>
      <trkpt lat="44.12271" lon="3.14103">
        <ele>693.59997558594</ele>
        <time>2020-10-03T15:44:12.000Z</time>
      </trkpt>
      <trkpt lat="44.12265" lon="3.141">
        <ele>692</ele>
        <time>2020-10-03T15:44:14.000Z</time>
      </trkpt>
      <trkpt lat="44.12257" lon="3.14098">
        <ele>691</ele>
        <time>2020-10-03T15:44:16.000Z</time>
      </trkpt>
      <trkpt lat="44.12247" lon="3.141">
        <ele>689.59997558594</ele>
        <time>2020-10-03T15:44:19.000Z</time>
      </trkpt>
      <trkpt lat="44.1224" lon="3.14102">
        <ele>688.40002441406</ele>
        <time>2020-10-03T15:44:21.000Z</time>
      </trkpt>
      <trkpt lat="44.12233" lon="3.14105">
        <ele>686.79998779297</ele>
        <time>2020-10-03T15:44:23.000Z</time>
      </trkpt>
      <trkpt lat="44.12229" lon="3.14106">
        <ele>686.20001220703</ele>
        <time>2020-10-03T15:44:24.000Z</time>
      </trkpt>
      <trkpt lat="44.12226" lon="3.14107">
        <ele>685.40002441406</ele>
        <time>2020-10-03T15:44:25.000Z</time>
      </trkpt>
      <trkpt lat="44.1222" lon="3.14107">
        <ele>684</ele>
        <time>2020-10-03T15:44:27.000Z</time>
      </trkpt>
      <trkpt lat="44.12217" lon="3.14107">
        <ele>683.40002441406</ele>
        <time>2020-10-03T15:44:28.000Z</time>
      </trkpt>
      <trkpt lat="44.12213" lon="3.14107">
        <ele>683</ele>
        <time>2020-10-03T15:44:29.000Z</time>
      </trkpt>
      <trkpt lat="44.12205" lon="3.14105">
        <ele>681.20001220703</ele>
        <time>2020-10-03T15:44:31.000Z</time>
      </trkpt>
      <trkpt lat="44.12201" lon="3.14103">
        <ele>680.59997558594</ele>
        <time>2020-10-03T15:44:32.000Z</time>
      </trkpt>
      <trkpt lat="44.12194" lon="3.14104">
        <ele>680</ele>
        <time>2020-10-03T15:44:33.000Z</time>
      </trkpt>
      <trkpt lat="44.12188" lon="3.14105">
        <ele>679.79998779297</ele>
        <time>2020-10-03T15:44:34.000Z</time>
      </trkpt>
      <trkpt lat="44.12177" lon="3.14108">
        <ele>679.59997558594</ele>
        <time>2020-10-03T15:44:36.000Z</time>
      </trkpt>
      <trkpt lat="44.12172" lon="3.14109">
        <ele>679.40002441406</ele>
        <time>2020-10-03T15:44:37.000Z</time>
      </trkpt>
      <trkpt lat="44.12161" lon="3.1411">
        <ele>678.79998779297</ele>
        <time>2020-10-03T15:44:39.000Z</time>
      </trkpt>
      <trkpt lat="44.12156" lon="3.1411">
        <ele>678.40002441406</ele>
        <time>2020-10-03T15:44:40.000Z</time>
      </trkpt>
      <trkpt lat="44.12152" lon="3.14109">
        <ele>677.79998779297</ele>
        <time>2020-10-03T15:44:41.000Z</time>
      </trkpt>
      <trkpt lat="44.12145" lon="3.14106">
        <ele>676.20001220703</ele>
        <time>2020-10-03T15:44:43.000Z</time>
      </trkpt>
      <trkpt lat="44.12142" lon="3.14105">
        <ele>675.20001220703</ele>
        <time>2020-10-03T15:44:44.000Z</time>
      </trkpt>
      <trkpt lat="44.12138" lon="3.14103">
        <ele>674.59997558594</ele>
        <time>2020-10-03T15:44:45.000Z</time>
      </trkpt>
      <trkpt lat="44.12134" lon="3.141">
        <ele>673.79998779297</ele>
        <time>2020-10-03T15:44:46.000Z</time>
      </trkpt>
      <trkpt lat="44.1213" lon="3.14099">
        <ele>673</ele>
        <time>2020-10-03T15:44:47.000Z</time>
      </trkpt>
      <trkpt lat="44.12125" lon="3.14098">
        <ele>671.79998779297</ele>
        <time>2020-10-03T15:44:48.000Z</time>
      </trkpt>
      <trkpt lat="44.12121" lon="3.14096">
        <ele>670.59997558594</ele>
        <time>2020-10-03T15:44:49.000Z</time>
      </trkpt>
      <trkpt lat="44.12116" lon="3.14094">
        <ele>669.40002441406</ele>
        <time>2020-10-03T15:44:50.000Z</time>
      </trkpt>
      <trkpt lat="44.12111" lon="3.14092">
        <ele>668.20001220703</ele>
        <time>2020-10-03T15:44:51.000Z</time>
      </trkpt>
      <trkpt lat="44.12108" lon="3.14091">
        <ele>667.20001220703</ele>
        <time>2020-10-03T15:44:52.000Z</time>
      </trkpt>
      <trkpt lat="44.12106" lon="3.1409">
        <ele>666.59997558594</ele>
        <time>2020-10-03T15:44:53.000Z</time>
      </trkpt>
      <trkpt lat="44.12095" lon="3.14086">
        <ele>665</ele>
        <time>2020-10-03T15:44:56.000Z</time>
      </trkpt>
      <trkpt lat="44.1209" lon="3.14084">
        <ele>664.59997558594</ele>
        <time>2020-10-03T15:44:57.000Z</time>
      </trkpt>
      <trkpt lat="44.12079" lon="3.14077">
        <ele>663.40002441406</ele>
        <time>2020-10-03T15:44:59.000Z</time>
      </trkpt>
      <trkpt lat="44.12074" lon="3.14075">
        <ele>663</ele>
        <time>2020-10-03T15:45:00.000Z</time>
      </trkpt>
      <trkpt lat="44.1207" lon="3.14073">
        <ele>662.40002441406</ele>
        <time>2020-10-03T15:45:01.000Z</time>
      </trkpt>
      <trkpt lat="44.12066" lon="3.14073">
        <ele>661.79998779297</ele>
        <time>2020-10-03T15:45:02.000Z</time>
      </trkpt>
      <trkpt lat="44.12059" lon="3.14075">
        <ele>660.40002441406</ele>
        <time>2020-10-03T15:45:04.000Z</time>
      </trkpt>
      <trkpt lat="44.12056" lon="3.14077">
        <ele>660</ele>
        <time>2020-10-03T15:45:05.000Z</time>
      </trkpt>
      <trkpt lat="44.12053" lon="3.14079">
        <ele>659.40002441406</ele>
        <time>2020-10-03T15:45:06.000Z</time>
      </trkpt>
      <trkpt lat="44.12048" lon="3.1408">
        <ele>658.20001220703</ele>
        <time>2020-10-03T15:45:07.000Z</time>
      </trkpt>
      <trkpt lat="44.12044" lon="3.14081">
        <ele>657.20001220703</ele>
        <time>2020-10-03T15:45:08.000Z</time>
      </trkpt>
      <trkpt lat="44.12034" lon="3.14084">
        <ele>655.79998779297</ele>
        <time>2020-10-03T15:45:10.000Z</time>
      </trkpt>
      <trkpt lat="44.12028" lon="3.14084">
        <ele>655</ele>
        <time>2020-10-03T15:45:11.000Z</time>
      </trkpt>
      <trkpt lat="44.12023" lon="3.14085">
        <ele>654.40002441406</ele>
        <time>2020-10-03T15:45:12.000Z</time>
      </trkpt>
      <trkpt lat="44.12016" lon="3.14086">
        <ele>653.20001220703</ele>
        <time>2020-10-03T15:45:14.000Z</time>
      </trkpt>
      <trkpt lat="44.12013" lon="3.14088">
        <ele>652.20001220703</ele>
        <time>2020-10-03T15:45:15.000Z</time>
      </trkpt>
      <trkpt lat="44.12009" lon="3.14089">
        <ele>651.59997558594</ele>
        <time>2020-10-03T15:45:16.000Z</time>
      </trkpt>
      <trkpt lat="44.12004" lon="3.14088">
        <ele>649.79998779297</ele>
        <time>2020-10-03T15:45:18.000Z</time>
      </trkpt>
      <trkpt lat="44.12" lon="3.14088">
        <ele>648.79998779297</ele>
        <time>2020-10-03T15:45:19.000Z</time>
      </trkpt>
      <trkpt lat="44.1199" lon="3.14087">
        <ele>647.40002441406</ele>
        <time>2020-10-03T15:45:21.000Z</time>
      </trkpt>
      <trkpt lat="44.11977" lon="3.14089">
        <ele>646.20001220703</ele>
        <time>2020-10-03T15:45:23.000Z</time>
      </trkpt>
      <trkpt lat="44.11973" lon="3.1409">
        <ele>645.59997558594</ele>
        <time>2020-10-03T15:45:24.000Z</time>
      </trkpt>
      <trkpt lat="44.1197" lon="3.14091">
        <ele>645</ele>
        <time>2020-10-03T15:45:25.000Z</time>
      </trkpt>
      <trkpt lat="44.11969" lon="3.14091">
        <ele>644</ele>
        <time>2020-10-03T15:45:26.000Z</time>
      </trkpt>
      <trkpt lat="44.11969" lon="3.14091">
        <ele>642.59997558594</ele>
        <time>2020-10-03T15:45:27.000Z</time>
      </trkpt>
      <trkpt lat="44.11967" lon="3.14093">
        <ele>640.59997558594</ele>
        <time>2020-10-03T15:45:28.000Z</time>
      </trkpt>
      <trkpt lat="44.11965" lon="3.14094">
        <ele>639</ele>
        <time>2020-10-03T15:45:30.000Z</time>
      </trkpt>
      <trkpt lat="44.11964" lon="3.14095">
        <ele>637.79998779297</ele>
        <time>2020-10-03T15:45:31.000Z</time>
      </trkpt>
      <trkpt lat="44.11963" lon="3.14096">
        <ele>636.79998779297</ele>
        <time>2020-10-03T15:45:32.000Z</time>
      </trkpt>
      <trkpt lat="44.11962" lon="3.14097">
        <ele>635.79998779297</ele>
        <time>2020-10-03T15:45:33.000Z</time>
      </trkpt>
      <trkpt lat="44.11961" lon="3.14098">
        <ele>635</ele>
        <time>2020-10-03T15:45:34.000Z</time>
      </trkpt>
      <trkpt lat="44.11959" lon="3.141">
        <ele>633.79998779297</ele>
        <time>2020-10-03T15:45:37.000Z</time>
      </trkpt>
      <trkpt lat="44.11958" lon="3.141">
        <ele>633.20001220703</ele>
        <time>2020-10-03T15:45:47.000Z</time>
      </trkpt>
      <trkpt lat="44.11958" lon="3.14101">
        <ele>632.79998779297</ele>
        <time>2020-10-03T15:46:05.000Z</time>
      </trkpt>
      <trkpt lat="44.11955" lon="3.14101">
        <ele>632.59997558594</ele>
        <time>2020-10-03T15:46:20.000Z</time>
      </trkpt>
      <trkpt lat="44.11952" lon="3.14103">
        <ele>632.79998779297</ele>
        <time>2020-10-03T15:46:35.000Z</time>
      </trkpt>
      <trkpt lat="44.11951" lon="3.14104">
        <ele>632.79998779297</ele>
        <time>2020-10-03T15:46:36.000Z</time>
      </trkpt>
      <trkpt lat="44.11949" lon="3.14107">
        <ele>633.20001220703</ele>
        <time>2020-10-03T15:46:51.000Z</time>
      </trkpt>
      <trkpt lat="44.11951" lon="3.14105">
        <ele>633</ele>
        <time>2020-10-03T15:47:07.000Z</time>
      </trkpt>
      <trkpt lat="44.1195" lon="3.14104">
        <ele>633.40002441406</ele>
        <time>2020-10-03T15:47:22.000Z</time>
      </trkpt>
      <trkpt lat="44.11948" lon="3.14106">
        <ele>633.40002441406</ele>
        <time>2020-10-03T15:47:36.000Z</time>
      </trkpt>
      <trkpt lat="44.11947" lon="3.14106">
        <ele>633.20001220703</ele>
        <time>2020-10-03T15:47:51.000Z</time>
      </trkpt>
      <trkpt lat="44.1195" lon="3.14104">
        <ele>633</ele>
        <time>2020-10-03T15:48:05.000Z</time>
      </trkpt>
      <trkpt lat="44.11946" lon="3.141">
        <ele>633</ele>
        <time>2020-10-03T15:48:12.000Z</time>
      </trkpt>
      <trkpt lat="44.11943" lon="3.14098">
        <ele>633</ele>
        <time>2020-10-03T15:48:14.000Z</time>
      </trkpt>
      <trkpt lat="44.11933" lon="3.14097">
        <ele>632.79998779297</ele>
        <time>2020-10-03T15:48:18.000Z</time>
      </trkpt>
      <trkpt lat="44.11927" lon="3.14108">
        <ele>631.59997558594</ele>
        <time>2020-10-03T15:48:22.000Z</time>
      </trkpt>
      <trkpt lat="44.11924" lon="3.14112">
        <ele>631.20001220703</ele>
        <time>2020-10-03T15:48:23.000Z</time>
      </trkpt>
      <trkpt lat="44.11921" lon="3.14115">
        <ele>630</ele>
        <time>2020-10-03T15:48:25.000Z</time>
      </trkpt>
      <trkpt lat="44.11918" lon="3.14116">
        <ele>628.79998779297</ele>
        <time>2020-10-03T15:48:27.000Z</time>
      </trkpt>
      <trkpt lat="44.11916" lon="3.14116">
        <ele>627</ele>
        <time>2020-10-03T15:48:29.000Z</time>
      </trkpt>
      <trkpt lat="44.11915" lon="3.14116">
        <ele>625.59997558594</ele>
        <time>2020-10-03T15:48:30.000Z</time>
      </trkpt>
      <trkpt lat="44.11912" lon="3.14117">
        <ele>624.79998779297</ele>
        <time>2020-10-03T15:48:32.000Z</time>
      </trkpt>
      <trkpt lat="44.1191" lon="3.14119">
        <ele>624.20001220703</ele>
        <time>2020-10-03T15:48:36.000Z</time>
      </trkpt>
      <trkpt lat="44.11909" lon="3.14123">
        <ele>623.79998779297</ele>
        <time>2020-10-03T15:48:42.000Z</time>
      </trkpt>
      <trkpt lat="44.11906" lon="3.14127">
        <ele>623.40002441406</ele>
        <time>2020-10-03T15:48:47.000Z</time>
      </trkpt>
      <trkpt lat="44.11904" lon="3.14132">
        <ele>622.59997558594</ele>
        <time>2020-10-03T15:48:54.000Z</time>
      </trkpt>
      <trkpt lat="44.11901" lon="3.14134">
        <ele>622</ele>
        <time>2020-10-03T15:48:56.000Z</time>
      </trkpt>
      <trkpt lat="44.11898" lon="3.14134">
        <ele>621.40002441406</ele>
        <time>2020-10-03T15:48:59.000Z</time>
      </trkpt>
      <trkpt lat="44.11896" lon="3.14135">
        <ele>621.40002441406</ele>
        <time>2020-10-03T15:49:01.000Z</time>
      </trkpt>
      <trkpt lat="44.11893" lon="3.14134">
        <ele>620.20001220703</ele>
        <time>2020-10-03T15:49:06.000Z</time>
      </trkpt>
      <trkpt lat="44.11893" lon="3.14133">
        <ele>619.40002441406</ele>
        <time>2020-10-03T15:49:08.000Z</time>
      </trkpt>
      <trkpt lat="44.11893" lon="3.14133">
        <ele>619</ele>
        <time>2020-10-03T15:49:09.000Z</time>
      </trkpt>
      <trkpt lat="44.11893" lon="3.14132">
        <ele>617.59997558594</ele>
        <time>2020-10-03T15:49:12.000Z</time>
      </trkpt>
      <trkpt lat="44.11892" lon="3.14132">
        <ele>617</ele>
        <time>2020-10-03T15:49:16.000Z</time>
      </trkpt>
      <trkpt lat="44.11891" lon="3.1413">
        <ele>616.79998779297</ele>
        <time>2020-10-03T15:49:28.000Z</time>
      </trkpt>
      <trkpt lat="44.1189" lon="3.14129">
        <ele>616.59997558594</ele>
        <time>2020-10-03T15:49:31.000Z</time>
      </trkpt>
      <trkpt lat="44.11879" lon="3.14126">
        <ele>616.40002441406</ele>
        <time>2020-10-03T15:49:36.000Z</time>
      </trkpt>
      <trkpt lat="44.11873" lon="3.1413">
        <ele>616.20001220703</ele>
        <time>2020-10-03T15:49:39.000Z</time>
      </trkpt>
      <trkpt lat="44.11872" lon="3.14128">
        <ele>616.20001220703</ele>
        <time>2020-10-03T15:49:40.000Z</time>
      </trkpt>
      <trkpt lat="44.11863" lon="3.14114">
        <ele>615.79998779297</ele>
        <time>2020-10-03T15:49:44.000Z</time>
      </trkpt>
      <trkpt lat="44.11853" lon="3.14108">
        <ele>615.40002441406</ele>
        <time>2020-10-03T15:49:46.000Z</time>
      </trkpt>
      <trkpt lat="44.1184" lon="3.14107">
        <ele>613.59997558594</ele>
        <time>2020-10-03T15:49:48.000Z</time>
      </trkpt>
      <trkpt lat="44.11828" lon="3.14103">
        <ele>612</ele>
        <time>2020-10-03T15:49:50.000Z</time>
      </trkpt>
      <trkpt lat="44.11822" lon="3.14101">
        <ele>610.79998779297</ele>
        <time>2020-10-03T15:49:51.000Z</time>
      </trkpt>
      <trkpt lat="44.11816" lon="3.14099">
        <ele>609.79998779297</ele>
        <time>2020-10-03T15:49:52.000Z</time>
      </trkpt>
      <trkpt lat="44.11806" lon="3.14096">
        <ele>607.79998779297</ele>
        <time>2020-10-03T15:49:54.000Z</time>
      </trkpt>
      <trkpt lat="44.11802" lon="3.14096">
        <ele>606.59997558594</ele>
        <time>2020-10-03T15:49:55.000Z</time>
      </trkpt>
      <trkpt lat="44.11799" lon="3.14096">
        <ele>605.59997558594</ele>
        <time>2020-10-03T15:49:56.000Z</time>
      </trkpt>
      <trkpt lat="44.11796" lon="3.14093">
        <ele>604.20001220703</ele>
        <time>2020-10-03T15:49:58.000Z</time>
      </trkpt>
      <trkpt lat="44.11793" lon="3.14092">
        <ele>602.59997558594</ele>
        <time>2020-10-03T15:50:00.000Z</time>
      </trkpt>
      <trkpt lat="44.11791" lon="3.14092">
        <ele>601.59997558594</ele>
        <time>2020-10-03T15:50:01.000Z</time>
      </trkpt>
      <trkpt lat="44.11788" lon="3.14093">
        <ele>600.40002441406</ele>
        <time>2020-10-03T15:50:02.000Z</time>
      </trkpt>
      <trkpt lat="44.11786" lon="3.14093">
        <ele>599.20001220703</ele>
        <time>2020-10-03T15:50:03.000Z</time>
      </trkpt>
      <trkpt lat="44.11784" lon="3.14092">
        <ele>598.20001220703</ele>
        <time>2020-10-03T15:50:04.000Z</time>
      </trkpt>
      <trkpt lat="44.11781" lon="3.1409">
        <ele>596.20001220703</ele>
        <time>2020-10-03T15:50:06.000Z</time>
      </trkpt>
      <trkpt lat="44.1178" lon="3.14089">
        <ele>595.40002441406</ele>
        <time>2020-10-03T15:50:07.000Z</time>
      </trkpt>
      <trkpt lat="44.1178" lon="3.14088">
        <ele>594.40002441406</ele>
        <time>2020-10-03T15:50:08.000Z</time>
      </trkpt>
      <trkpt lat="44.11781" lon="3.14087">
        <ele>593.40002441406</ele>
        <time>2020-10-03T15:50:09.000Z</time>
      </trkpt>
      <trkpt lat="44.11781" lon="3.14086">
        <ele>592.40002441406</ele>
        <time>2020-10-03T15:50:10.000Z</time>
      </trkpt>
      <trkpt lat="44.11783" lon="3.14085">
        <ele>591.20001220703</ele>
        <time>2020-10-03T15:50:11.000Z</time>
      </trkpt>
      <trkpt lat="44.11788" lon="3.14084">
        <ele>589.59997558594</ele>
        <time>2020-10-03T15:50:13.000Z</time>
      </trkpt>
      <trkpt lat="44.11789" lon="3.14083">
        <ele>587.79998779297</ele>
        <time>2020-10-03T15:50:15.000Z</time>
      </trkpt>
      <trkpt lat="44.11788" lon="3.14082">
        <ele>586.59997558594</ele>
        <time>2020-10-03T15:50:16.000Z</time>
      </trkpt>
      <trkpt lat="44.11786" lon="3.14081">
        <ele>584.79998779297</ele>
        <time>2020-10-03T15:50:17.000Z</time>
      </trkpt>
      <trkpt lat="44.11784" lon="3.14079">
        <ele>583.40002441406</ele>
        <time>2020-10-03T15:50:19.000Z</time>
      </trkpt>
      <trkpt lat="44.11784" lon="3.14076">
        <ele>581.79998779297</ele>
        <time>2020-10-03T15:50:21.000Z</time>
      </trkpt>
      <trkpt lat="44.11782" lon="3.14073">
        <ele>580.20001220703</ele>
        <time>2020-10-03T15:50:23.000Z</time>
      </trkpt>
      <trkpt lat="44.11781" lon="3.14072">
        <ele>579.40002441406</ele>
        <time>2020-10-03T15:50:24.000Z</time>
      </trkpt>
      <trkpt lat="44.11781" lon="3.14072">
        <ele>578.40002441406</ele>
        <time>2020-10-03T15:50:25.000Z</time>
      </trkpt>
      <trkpt lat="44.11781" lon="3.14071">
        <ele>576.79998779297</ele>
        <time>2020-10-03T15:50:27.000Z</time>
      </trkpt>
      <trkpt lat="44.11779" lon="3.14068">
        <ele>575.20001220703</ele>
        <time>2020-10-03T15:50:29.000Z</time>
      </trkpt>
      <trkpt lat="44.11777" lon="3.14067">
        <ele>574.40002441406</ele>
        <time>2020-10-03T15:50:30.000Z</time>
      </trkpt>
      <trkpt lat="44.11774" lon="3.14065">
        <ele>574</ele>
        <time>2020-10-03T15:50:31.000Z</time>
      </trkpt>
      <trkpt lat="44.11767" lon="3.14053">
        <ele>573.20001220703</ele>
        <time>2020-10-03T15:50:35.000Z</time>
      </trkpt>
      <trkpt lat="44.11754" lon="3.14037">
        <ele>573</ele>
        <time>2020-10-03T15:50:41.000Z</time>
      </trkpt>
      <trkpt lat="44.11746" lon="3.14031">
        <ele>573</ele>
        <time>2020-10-03T15:50:43.000Z</time>
      </trkpt>
      <trkpt lat="44.11732" lon="3.14025">
        <ele>572.79998779297</ele>
        <time>2020-10-03T15:50:46.000Z</time>
      </trkpt>
      <trkpt lat="44.11715" lon="3.14018">
        <ele>572.40002441406</ele>
        <time>2020-10-03T15:50:51.000Z</time>
      </trkpt>
      <trkpt lat="44.11707" lon="3.14011">
        <ele>571.59997558594</ele>
        <time>2020-10-03T15:50:54.000Z</time>
      </trkpt>
      <trkpt lat="44.11703" lon="3.14003">
        <ele>571</ele>
        <time>2020-10-03T15:50:56.000Z</time>
      </trkpt>
      <trkpt lat="44.11701" lon="3.13999">
        <ele>570.40002441406</ele>
        <time>2020-10-03T15:50:57.000Z</time>
      </trkpt>
      <trkpt lat="44.11698" lon="3.13989">
        <ele>568.59997558594</ele>
        <time>2020-10-03T15:50:59.000Z</time>
      </trkpt>
      <trkpt lat="44.11694" lon="3.13981">
        <ele>566.79998779297</ele>
        <time>2020-10-03T15:51:01.000Z</time>
      </trkpt>
      <trkpt lat="44.11692" lon="3.13978">
        <ele>565.79998779297</ele>
        <time>2020-10-03T15:51:02.000Z</time>
      </trkpt>
      <trkpt lat="44.11691" lon="3.13975">
        <ele>564.40002441406</ele>
        <time>2020-10-03T15:51:03.000Z</time>
      </trkpt>
      <trkpt lat="44.11689" lon="3.13971">
        <ele>563</ele>
        <time>2020-10-03T15:51:04.000Z</time>
      </trkpt>
      <trkpt lat="44.11687" lon="3.13971">
        <ele>562</ele>
        <time>2020-10-03T15:51:05.000Z</time>
      </trkpt>
      <trkpt lat="44.11686" lon="3.13971">
        <ele>560.79998779297</ele>
        <time>2020-10-03T15:51:06.000Z</time>
      </trkpt>
      <trkpt lat="44.11683" lon="3.13974">
        <ele>559.79998779297</ele>
        <time>2020-10-03T15:51:07.000Z</time>
      </trkpt>
      <trkpt lat="44.1168" lon="3.13977">
        <ele>559</ele>
        <time>2020-10-03T15:51:08.000Z</time>
      </trkpt>
      <trkpt lat="44.11678" lon="3.13978">
        <ele>558</ele>
        <time>2020-10-03T15:51:09.000Z</time>
      </trkpt>
      <trkpt lat="44.11674" lon="3.13977">
        <ele>556</ele>
        <time>2020-10-03T15:51:11.000Z</time>
      </trkpt>
      <trkpt lat="44.11671" lon="3.13972">
        <ele>554.40002441406</ele>
        <time>2020-10-03T15:51:13.000Z</time>
      </trkpt>
      <trkpt lat="44.1167" lon="3.13967">
        <ele>553.59997558594</ele>
        <time>2020-10-03T15:51:14.000Z</time>
      </trkpt>
      <trkpt lat="44.11669" lon="3.13961">
        <ele>552.59997558594</ele>
        <time>2020-10-03T15:51:15.000Z</time>
      </trkpt>
      <trkpt lat="44.11667" lon="3.13956">
        <ele>550.40002441406</ele>
        <time>2020-10-03T15:51:16.000Z</time>
      </trkpt>
      <trkpt lat="44.11664" lon="3.13949">
        <ele>549.20001220703</ele>
        <time>2020-10-03T15:51:18.000Z</time>
      </trkpt>
      <trkpt lat="44.11663" lon="3.13948">
        <ele>548.79998779297</ele>
        <time>2020-10-03T15:51:19.000Z</time>
      </trkpt>
      <trkpt lat="44.11661" lon="3.13942">
        <ele>548.20001220703</ele>
        <time>2020-10-03T15:51:22.000Z</time>
      </trkpt>
      <trkpt lat="44.11659" lon="3.13936">
        <ele>548</ele>
        <time>2020-10-03T15:51:24.000Z</time>
      </trkpt>
      <trkpt lat="44.11647" lon="3.13922">
        <ele>546.40002441406</ele>
        <time>2020-10-03T15:51:28.000Z</time>
      </trkpt>
      <trkpt lat="44.11642" lon="3.13919">
        <ele>545.79998779297</ele>
        <time>2020-10-03T15:51:29.000Z</time>
      </trkpt>
      <trkpt lat="44.11636" lon="3.13916">
        <ele>545.40002441406</ele>
        <time>2020-10-03T15:51:30.000Z</time>
      </trkpt>
      <trkpt lat="44.11624" lon="3.13914">
        <ele>543.79998779297</ele>
        <time>2020-10-03T15:51:32.000Z</time>
      </trkpt>
      <trkpt lat="44.11618" lon="3.13913">
        <ele>543</ele>
        <time>2020-10-03T15:51:33.000Z</time>
      </trkpt>
      <trkpt lat="44.11613" lon="3.13911">
        <ele>542.40002441406</ele>
        <time>2020-10-03T15:51:34.000Z</time>
      </trkpt>
      <trkpt lat="44.11605" lon="3.1391">
        <ele>541.20001220703</ele>
        <time>2020-10-03T15:51:36.000Z</time>
      </trkpt>
      <trkpt lat="44.116" lon="3.13909">
        <ele>540.20001220703</ele>
        <time>2020-10-03T15:51:37.000Z</time>
      </trkpt>
      <trkpt lat="44.11596" lon="3.13909">
        <ele>539.20001220703</ele>
        <time>2020-10-03T15:51:38.000Z</time>
      </trkpt>
      <trkpt lat="44.11593" lon="3.13909">
        <ele>537.59997558594</ele>
        <time>2020-10-03T15:51:39.000Z</time>
      </trkpt>
      <trkpt lat="44.11591" lon="3.1391">
        <ele>536.40002441406</ele>
        <time>2020-10-03T15:51:40.000Z</time>
      </trkpt>
      <trkpt lat="44.11588" lon="3.13911">
        <ele>535.40002441406</ele>
        <time>2020-10-03T15:51:41.000Z</time>
      </trkpt>
      <trkpt lat="44.11586" lon="3.13911">
        <ele>534.40002441406</ele>
        <time>2020-10-03T15:51:42.000Z</time>
      </trkpt>
      <trkpt lat="44.11581" lon="3.13913">
        <ele>532.59997558594</ele>
        <time>2020-10-03T15:51:44.000Z</time>
      </trkpt>
      <trkpt lat="44.11578" lon="3.13914">
        <ele>530.40002441406</ele>
        <time>2020-10-03T15:51:45.000Z</time>
      </trkpt>
      <trkpt lat="44.11574" lon="3.13915">
        <ele>528.79998779297</ele>
        <time>2020-10-03T15:51:47.000Z</time>
      </trkpt>
      <trkpt lat="44.11572" lon="3.13917">
        <ele>528.20001220703</ele>
        <time>2020-10-03T15:51:48.000Z</time>
      </trkpt>
      <trkpt lat="44.11568" lon="3.13921">
        <ele>527.79998779297</ele>
        <time>2020-10-03T15:51:50.000Z</time>
      </trkpt>
      <trkpt lat="44.11568" lon="3.13923">
        <ele>527.59997558594</ele>
        <time>2020-10-03T15:51:51.000Z</time>
      </trkpt>
      <trkpt lat="44.11562" lon="3.1394">
        <ele>526</ele>
        <time>2020-10-03T15:51:54.000Z</time>
      </trkpt>
      <trkpt lat="44.1156" lon="3.13944">
        <ele>525.20001220703</ele>
        <time>2020-10-03T15:51:55.000Z</time>
      </trkpt>
      <trkpt lat="44.11558" lon="3.13948">
        <ele>524.20001220703</ele>
        <time>2020-10-03T15:51:56.000Z</time>
      </trkpt>
      <trkpt lat="44.11555" lon="3.13959">
        <ele>523.40002441406</ele>
        <time>2020-10-03T15:51:58.000Z</time>
      </trkpt>
      <trkpt lat="44.11553" lon="3.13965">
        <ele>522.59997558594</ele>
        <time>2020-10-03T15:51:59.000Z</time>
      </trkpt>
      <trkpt lat="44.11551" lon="3.13972">
        <ele>522</ele>
        <time>2020-10-03T15:52:00.000Z</time>
      </trkpt>
      <trkpt lat="44.11548" lon="3.13978">
        <ele>521.59997558594</ele>
        <time>2020-10-03T15:52:01.000Z</time>
      </trkpt>
      <trkpt lat="44.11543" lon="3.13998">
        <ele>521</ele>
        <time>2020-10-03T15:52:04.000Z</time>
      </trkpt>
      <trkpt lat="44.11541" lon="3.14005">
        <ele>521</ele>
        <time>2020-10-03T15:52:05.000Z</time>
      </trkpt>
      <trkpt lat="44.11536" lon="3.14021">
        <ele>520.20001220703</ele>
        <time>2020-10-03T15:52:07.000Z</time>
      </trkpt>
      <trkpt lat="44.11533" lon="3.14036">
        <ele>519</ele>
        <time>2020-10-03T15:52:09.000Z</time>
      </trkpt>
      <trkpt lat="44.1153" lon="3.14045">
        <ele>518.40002441406</ele>
        <time>2020-10-03T15:52:10.000Z</time>
      </trkpt>
      <trkpt lat="44.11527" lon="3.14052">
        <ele>517.59997558594</ele>
        <time>2020-10-03T15:52:11.000Z</time>
      </trkpt>
      <trkpt lat="44.11521" lon="3.14068">
        <ele>516</ele>
        <time>2020-10-03T15:52:13.000Z</time>
      </trkpt>
      <trkpt lat="44.11518" lon="3.14076">
        <ele>514.79998779297</ele>
        <time>2020-10-03T15:52:14.000Z</time>
      </trkpt>
      <trkpt lat="44.11511" lon="3.1409">
        <ele>514</ele>
        <time>2020-10-03T15:52:16.000Z</time>
      </trkpt>
      <trkpt lat="44.11506" lon="3.14095">
        <ele>513.59997558594</ele>
        <time>2020-10-03T15:52:17.000Z</time>
      </trkpt>
      <trkpt lat="44.115" lon="3.14098">
        <ele>513.40002441406</ele>
        <time>2020-10-03T15:52:18.000Z</time>
      </trkpt>
      <trkpt lat="44.11487" lon="3.14105">
        <ele>512.20001220703</ele>
        <time>2020-10-03T15:52:20.000Z</time>
      </trkpt>
      <trkpt lat="44.11481" lon="3.14111">
        <ele>511</ele>
        <time>2020-10-03T15:52:22.000Z</time>
      </trkpt>
      <trkpt lat="44.11474" lon="3.14114">
        <ele>509.39999389648</ele>
        <time>2020-10-03T15:52:24.000Z</time>
      </trkpt>
      <trkpt lat="44.11466" lon="3.14117">
        <ele>507.60000610352</ele>
        <time>2020-10-03T15:52:26.000Z</time>
      </trkpt>
      <trkpt lat="44.11463" lon="3.14115">
        <ele>506.60000610352</ele>
        <time>2020-10-03T15:52:27.000Z</time>
      </trkpt>
      <trkpt lat="44.11455" lon="3.14115">
        <ele>504.79998779297</ele>
        <time>2020-10-03T15:52:29.000Z</time>
      </trkpt>
      <trkpt lat="44.11451" lon="3.14117">
        <ele>504.20001220703</ele>
        <time>2020-10-03T15:52:30.000Z</time>
      </trkpt>
      <trkpt lat="44.11447" lon="3.14119">
        <ele>503.20001220703</ele>
        <time>2020-10-03T15:52:31.000Z</time>
      </trkpt>
      <trkpt lat="44.11439" lon="3.14122">
        <ele>501.60000610352</ele>
        <time>2020-10-03T15:52:33.000Z</time>
      </trkpt>
      <trkpt lat="44.11432" lon="3.14128">
        <ele>499.79998779297</ele>
        <time>2020-10-03T15:52:35.000Z</time>
      </trkpt>
      <trkpt lat="44.1143" lon="3.14131">
        <ele>498.79998779297</ele>
        <time>2020-10-03T15:52:36.000Z</time>
      </trkpt>
      <trkpt lat="44.11426" lon="3.14134">
        <ele>497.79998779297</ele>
        <time>2020-10-03T15:52:37.000Z</time>
      </trkpt>
      <trkpt lat="44.11421" lon="3.14137">
        <ele>496.60000610352</ele>
        <time>2020-10-03T15:52:38.000Z</time>
      </trkpt>
      <trkpt lat="44.11417" lon="3.14138">
        <ele>495.60000610352</ele>
        <time>2020-10-03T15:52:39.000Z</time>
      </trkpt>
      <trkpt lat="44.11414" lon="3.14139">
        <ele>494.60000610352</ele>
        <time>2020-10-03T15:52:40.000Z</time>
      </trkpt>
      <trkpt lat="44.11412" lon="3.1414">
        <ele>493.39999389648</ele>
        <time>2020-10-03T15:52:42.000Z</time>
      </trkpt>
      <trkpt lat="44.11409" lon="3.14142">
        <ele>492.20001220703</ele>
        <time>2020-10-03T15:52:45.000Z</time>
      </trkpt>
      <trkpt lat="44.11408" lon="3.14144">
        <ele>491</ele>
        <time>2020-10-03T15:52:48.000Z</time>
      </trkpt>
      <trkpt lat="44.11407" lon="3.14146">
        <ele>490</ele>
        <time>2020-10-03T15:52:53.000Z</time>
      </trkpt>
      <trkpt lat="44.11405" lon="3.14147">
        <ele>489.79998779297</ele>
        <time>2020-10-03T15:52:59.000Z</time>
      </trkpt>
      <trkpt lat="44.114" lon="3.14155">
        <ele>489.79998779297</ele>
        <time>2020-10-03T15:53:14.000Z</time>
      </trkpt>
      <trkpt lat="44.114" lon="3.14156">
        <ele>489.79998779297</ele>
        <time>2020-10-03T15:53:30.000Z</time>
      </trkpt>
      <trkpt lat="44.114" lon="3.14152">
        <ele>489.79998779297</ele>
        <time>2020-10-03T15:53:46.000Z</time>
      </trkpt>
      <trkpt lat="44.11403" lon="3.14146">
        <ele>489.79998779297</ele>
        <time>2020-10-03T15:53:59.000Z</time>
      </trkpt>
      <trkpt lat="44.11401" lon="3.14149">
        <ele>489.79998779297</ele>
        <time>2020-10-03T15:54:13.000Z</time>
      </trkpt>
      <trkpt lat="44.11399" lon="3.1415">
        <ele>489.60000610352</ele>
        <time>2020-10-03T15:54:29.000Z</time>
      </trkpt>
      <trkpt lat="44.1139" lon="3.14151">
        <ele>489.39999389648</ele>
        <time>2020-10-03T15:54:33.000Z</time>
      </trkpt>
      <trkpt lat="44.11372" lon="3.14145">
        <ele>489.20001220703</ele>
        <time>2020-10-03T15:54:38.000Z</time>
      </trkpt>
      <trkpt lat="44.11369" lon="3.14143">
        <ele>489.20001220703</ele>
        <time>2020-10-03T15:54:39.000Z</time>
      </trkpt>
      <trkpt lat="44.1136" lon="3.1414">
        <ele>488.79998779297</ele>
        <time>2020-10-03T15:54:41.000Z</time>
      </trkpt>
      <trkpt lat="44.11348" lon="3.14137">
        <ele>488.20001220703</ele>
        <time>2020-10-03T15:54:43.000Z</time>
      </trkpt>
      <trkpt lat="44.11343" lon="3.14136">
        <ele>488</ele>
        <time>2020-10-03T15:54:44.000Z</time>
      </trkpt>
      <trkpt lat="44.11337" lon="3.14135">
        <ele>487.39999389648</ele>
        <time>2020-10-03T15:54:46.000Z</time>
      </trkpt>
      <trkpt lat="44.11334" lon="3.14133">
        <ele>487</ele>
        <time>2020-10-03T15:54:47.000Z</time>
      </trkpt>
      <trkpt lat="44.11327" lon="3.14127">
        <ele>485.79998779297</ele>
        <time>2020-10-03T15:54:49.000Z</time>
      </trkpt>
      <trkpt lat="44.11323" lon="3.14123">
        <ele>485</ele>
        <time>2020-10-03T15:54:50.000Z</time>
      </trkpt>
      <trkpt lat="44.11319" lon="3.1412">
        <ele>483.79998779297</ele>
        <time>2020-10-03T15:54:51.000Z</time>
      </trkpt>
      <trkpt lat="44.11316" lon="3.14116">
        <ele>482.60000610352</ele>
        <time>2020-10-03T15:54:52.000Z</time>
      </trkpt>
      <trkpt lat="44.11312" lon="3.14113">
        <ele>481.39999389648</ele>
        <time>2020-10-03T15:54:53.000Z</time>
      </trkpt>
      <trkpt lat="44.11305" lon="3.14109">
        <ele>479.79998779297</ele>
        <time>2020-10-03T15:54:55.000Z</time>
      </trkpt>
      <trkpt lat="44.11302" lon="3.14107">
        <ele>478.79998779297</ele>
        <time>2020-10-03T15:54:56.000Z</time>
      </trkpt>
      <trkpt lat="44.11299" lon="3.14105">
        <ele>477.39999389648</ele>
        <time>2020-10-03T15:54:57.000Z</time>
      </trkpt>
      <trkpt lat="44.11295" lon="3.14101">
        <ele>476.60000610352</ele>
        <time>2020-10-03T15:54:58.000Z</time>
      </trkpt>
      <trkpt lat="44.11291" lon="3.14095">
        <ele>475.39999389648</ele>
        <time>2020-10-03T15:54:59.000Z</time>
      </trkpt>
      <trkpt lat="44.11287" lon="3.14089">
        <ele>474</ele>
        <time>2020-10-03T15:55:00.000Z</time>
      </trkpt>
      <trkpt lat="44.11281" lon="3.14078">
        <ele>471.79998779297</ele>
        <time>2020-10-03T15:55:02.000Z</time>
      </trkpt>
      <trkpt lat="44.11278" lon="3.14072">
        <ele>470.39999389648</ele>
        <time>2020-10-03T15:55:03.000Z</time>
      </trkpt>
      <trkpt lat="44.11274" lon="3.14067">
        <ele>469</ele>
        <time>2020-10-03T15:55:04.000Z</time>
      </trkpt>
      <trkpt lat="44.11271" lon="3.14062">
        <ele>467.60000610352</ele>
        <time>2020-10-03T15:55:05.000Z</time>
      </trkpt>
      <trkpt lat="44.11267" lon="3.14055">
        <ele>466.20001220703</ele>
        <time>2020-10-03T15:55:06.000Z</time>
      </trkpt>
      <trkpt lat="44.11263" lon="3.14048">
        <ele>464.79998779297</ele>
        <time>2020-10-03T15:55:07.000Z</time>
      </trkpt>
      <trkpt lat="44.1126" lon="3.14041">
        <ele>461.79998779297</ele>
        <time>2020-10-03T15:55:08.000Z</time>
      </trkpt>
      <trkpt lat="44.11256" lon="3.14033">
        <ele>460.39999389648</ele>
        <time>2020-10-03T15:55:09.000Z</time>
      </trkpt>
      <trkpt lat="44.11253" lon="3.14026">
        <ele>459</ele>
        <time>2020-10-03T15:55:10.000Z</time>
      </trkpt>
      <trkpt lat="44.11249" lon="3.1402">
        <ele>457.60000610352</ele>
        <time>2020-10-03T15:55:11.000Z</time>
      </trkpt>
      <trkpt lat="44.11246" lon="3.14017">
        <ele>456.20001220703</ele>
        <time>2020-10-03T15:55:12.000Z</time>
      </trkpt>
      <trkpt lat="44.11245" lon="3.14016">
        <ele>454.79998779297</ele>
        <time>2020-10-03T15:55:13.000Z</time>
      </trkpt>
      <trkpt lat="44.11245" lon="3.14023">
        <ele>452.79998779297</ele>
        <time>2020-10-03T15:55:15.000Z</time>
      </trkpt>
      <trkpt lat="44.11245" lon="3.14027">
        <ele>451.20001220703</ele>
        <time>2020-10-03T15:55:16.000Z</time>
      </trkpt>
      <trkpt lat="44.11245" lon="3.14031">
        <ele>450.20001220703</ele>
        <time>2020-10-03T15:55:17.000Z</time>
      </trkpt>
      <trkpt lat="44.11246" lon="3.14033">
        <ele>448.39999389648</ele>
        <time>2020-10-03T15:55:18.000Z</time>
      </trkpt>
      <trkpt lat="44.11246" lon="3.14034">
        <ele>447</ele>
        <time>2020-10-03T15:55:19.000Z</time>
      </trkpt>
      <trkpt lat="44.11246" lon="3.14035">
        <ele>446.20001220703</ele>
        <time>2020-10-03T15:55:20.000Z</time>
      </trkpt>
      <trkpt lat="44.11246" lon="3.14036">
        <ele>445.20001220703</ele>
        <time>2020-10-03T15:55:21.000Z</time>
      </trkpt>
      <trkpt lat="44.11246" lon="3.14037">
        <ele>443.79998779297</ele>
        <time>2020-10-03T15:55:23.000Z</time>
      </trkpt>
      <trkpt lat="44.11246" lon="3.14037">
        <ele>442.39999389648</ele>
        <time>2020-10-03T15:55:25.000Z</time>
      </trkpt>
      <trkpt lat="44.11248" lon="3.14038">
        <ele>441.20001220703</ele>
        <time>2020-10-03T15:55:28.000Z</time>
      </trkpt>
      <trkpt lat="44.11252" lon="3.14043">
        <ele>440.79998779297</ele>
        <time>2020-10-03T15:55:35.000Z</time>
      </trkpt>
      <trkpt lat="44.11248" lon="3.14059">
        <ele>440.20001220703</ele>
        <time>2020-10-03T15:55:40.000Z</time>
      </trkpt>
      <trkpt lat="44.1124" lon="3.14062">
        <ele>439.79998779297</ele>
        <time>2020-10-03T15:55:43.000Z</time>
      </trkpt>
      <trkpt lat="44.11234" lon="3.14054">
        <ele>439.20001220703</ele>
        <time>2020-10-03T15:55:45.000Z</time>
      </trkpt>
      <trkpt lat="44.11231" lon="3.14049">
        <ele>438.79998779297</ele>
        <time>2020-10-03T15:55:46.000Z</time>
      </trkpt>
      <trkpt lat="44.11228" lon="3.14043">
        <ele>438.60000610352</ele>
        <time>2020-10-03T15:55:47.000Z</time>
      </trkpt>
      <trkpt lat="44.11218" lon="3.14028">
        <ele>437.39999389648</ele>
        <time>2020-10-03T15:55:49.000Z</time>
      </trkpt>
      <trkpt lat="44.11212" lon="3.1402">
        <ele>437</ele>
        <time>2020-10-03T15:55:50.000Z</time>
      </trkpt>
      <trkpt lat="44.11206" lon="3.14011">
        <ele>436.39999389648</ele>
        <time>2020-10-03T15:55:51.000Z</time>
      </trkpt>
      <trkpt lat="44.11202" lon="3.14002">
        <ele>436</ele>
        <time>2020-10-03T15:55:52.000Z</time>
      </trkpt>
      <trkpt lat="44.11195" lon="3.13983">
        <ele>435.20001220703</ele>
        <time>2020-10-03T15:55:54.000Z</time>
      </trkpt>
      <trkpt lat="44.11191" lon="3.13974">
        <ele>435</ele>
        <time>2020-10-03T15:55:55.000Z</time>
      </trkpt>
      <trkpt lat="44.11181" lon="3.13957">
        <ele>433.79998779297</ele>
        <time>2020-10-03T15:55:57.000Z</time>
      </trkpt>
      <trkpt lat="44.11175" lon="3.1395">
        <ele>432.79998779297</ele>
        <time>2020-10-03T15:55:58.000Z</time>
      </trkpt>
      <trkpt lat="44.11168" lon="3.13943">
        <ele>431.60000610352</ele>
        <time>2020-10-03T15:55:59.000Z</time>
      </trkpt>
      <trkpt lat="44.11161" lon="3.13935">
        <ele>430.39999389648</ele>
        <time>2020-10-03T15:56:00.000Z</time>
      </trkpt>
      <trkpt lat="44.11153" lon="3.13927">
        <ele>429.20001220703</ele>
        <time>2020-10-03T15:56:01.000Z</time>
      </trkpt>
      <trkpt lat="44.11144" lon="3.13918">
        <ele>427.79998779297</ele>
        <time>2020-10-03T15:56:02.000Z</time>
      </trkpt>
      <trkpt lat="44.11135" lon="3.1391">
        <ele>426.60000610352</ele>
        <time>2020-10-03T15:56:03.000Z</time>
      </trkpt>
      <trkpt lat="44.11125" lon="3.13901">
        <ele>425.60000610352</ele>
        <time>2020-10-03T15:56:04.000Z</time>
      </trkpt>
      <trkpt lat="44.11115" lon="3.13893">
        <ele>424.39999389648</ele>
        <time>2020-10-03T15:56:05.000Z</time>
      </trkpt>
      <trkpt lat="44.11104" lon="3.13884">
        <ele>423.20001220703</ele>
        <time>2020-10-03T15:56:06.000Z</time>
      </trkpt>
      <trkpt lat="44.11094" lon="3.13876">
        <ele>420.79998779297</ele>
        <time>2020-10-03T15:56:07.000Z</time>
      </trkpt>
      <trkpt lat="44.11084" lon="3.1387">
        <ele>419.60000610352</ele>
        <time>2020-10-03T15:56:08.000Z</time>
      </trkpt>
      <trkpt lat="44.1107" lon="3.13864">
        <ele>417.79998779297</ele>
        <time>2020-10-03T15:56:10.000Z</time>
      </trkpt>
      <trkpt lat="44.11066" lon="3.13862">
        <ele>416.79998779297</ele>
        <time>2020-10-03T15:56:11.000Z</time>
      </trkpt>
      <trkpt lat="44.11064" lon="3.13862">
        <ele>416.20001220703</ele>
        <time>2020-10-03T15:56:12.000Z</time>
      </trkpt>
      <trkpt lat="44.11062" lon="3.13863">
        <ele>415</ele>
        <time>2020-10-03T15:56:13.000Z</time>
      </trkpt>
      <trkpt lat="44.11061" lon="3.13864">
        <ele>413.79998779297</ele>
        <time>2020-10-03T15:56:14.000Z</time>
      </trkpt>
      <trkpt lat="44.11061" lon="3.13865">
        <ele>412.39999389648</ele>
        <time>2020-10-03T15:56:15.000Z</time>
      </trkpt>
      <trkpt lat="44.11061" lon="3.13866">
        <ele>411</ele>
        <time>2020-10-03T15:56:16.000Z</time>
      </trkpt>
      <trkpt lat="44.11061" lon="3.13867">
        <ele>409.79998779297</ele>
        <time>2020-10-03T15:56:17.000Z</time>
      </trkpt>
    </trkseg>
  </trk>
</gpx>